sensor_id;sensor_type;location;lat;lon;timestamp;temperature;humidity
53410;DHT22;66590;50.734;4.246;2023-03-03T00:01:31;4.00;99.90
53410;DHT22;66590;50.734;4.246;2023-03-03T00:04:00;4.00;99.90
53410;DHT22;66590;50.734;4.246;2023-03-03T00:06:27;3.90;99.90
53410;DHT22;66590;50.734;4.246;2023-03-03T00:08:54;3.80;99.90
53410;DHT22;66590;50.734;4.246;2023-03-03T00:11:21;3.80;99.90
53410;DHT22;66590;50.734;4.246;2023-03-03T00:13:50;3.80;99.90
53410;DHT22;66590;50.734;4.246;2023-03-03T00:16:22;3.70;99.90
53410;DHT22;66590;50.734;4.246;2023-03-03T00:18:52;3.70;99.90
53410;DHT22;66590;50.734;4.246;2023-03-03T00:21:25;3.70;99.90
53410;DHT22;66590;50.734;4.246;2023-03-03T00:23:52;3.60;99.90
53410;DHT22;66590;50.734;4.246;2023-03-03T00:26:21;3.60;99.90
53410;DHT22;66590;50.734;4.246;2023-03-03T00:28:50;3.50;99.90
53410;DHT22;66590;50.734;4.246;2023-03-03T00:31:20;3.50;99.90
53410;DHT22;66590;50.734;4.246;2023-03-03T00:33:49;3.50;99.90
53410;DHT22;66590;50.734;4.246;2023-03-03T00:36:35;3.40;99.90
53410;DHT22;66590;50.734;4.246;2023-03-03T00:39:21;3.50;99.90
53410;DHT22;66590;50.734;4.246;2023-03-03T00:41:49;3.40;99.90
53410;DHT22;66590;50.734;4.246;2023-03-03T00:44:39;3.40;99.90
53410;DHT22;66590;50.734;4.246;2023-03-03T00:47:25;3.50;99.90
53410;DHT22;66590;50.734;4.246;2023-03-03T00:50:22;3.50;99.90
53410;DHT22;66590;50.734;4.246;2023-03-03T00:53:00;3.40;99.90
53410;DHT22;66590;50.734;4.246;2023-03-03T00:55:28;3.30;99.90
53410;DHT22;66590;50.734;4.246;2023-03-03T00:57:55;3.30;99.90
53410;DHT22;66590;50.734;4.246;2023-03-03T01:00:22;3.30;99.90
53410;DHT22;66590;50.734;4.246;2023-03-03T01:02:49;3.30;99.90
53410;DHT22;66590;50.734;4.246;2023-03-03T01:05:18;3.20;99.90
53410;DHT22;66590;50.734;4.246;2023-03-03T01:07:45;3.20;99.90
53410;DHT22;66590;50.734;4.246;2023-03-03T01:10:16;3.20;99.90
53410;DHT22;66590;50.734;4.246;2023-03-03T01:12:44;3.20;99.90
53410;DHT22;66590;50.734;4.246;2023-03-03T01:15:13;3.00;99.90
53410;DHT22;66590;50.734;4.246;2023-03-03T01:17:40;3.10;99.90
53410;DHT22;66590;50.734;4.246;2023-03-03T01:20:11;3.10;99.90
53410;DHT22;66590;50.734;4.246;2023-03-03T01:22:39;3.10;99.90
53410;DHT22;66590;50.734;4.246;2023-03-03T01:25:06;3.10;99.90
53410;DHT22;66590;50.734;4.246;2023-03-03T01:27:35;3.10;99.90
53410;DHT22;66590;50.734;4.246;2023-03-03T01:30:03;3.00;99.90
53410;DHT22;66590;50.734;4.246;2023-03-03T01:32:31;3.00;99.90
53410;DHT22;66590;50.734;4.246;2023-03-03T01:34:58;3.00;99.90
53410;DHT22;66590;50.734;4.246;2023-03-03T01:37:25;2.90;99.90
53410;DHT22;66590;50.734;4.246;2023-03-03T01:39:53;2.90;99.90
53410;DHT22;66590;50.734;4.246;2023-03-03T01:42:21;2.90;99.90
53410;DHT22;66590;50.734;4.246;2023-03-03T01:45:11;3.00;99.90
53410;DHT22;66590;50.734;4.246;2023-03-03T01:47:38;2.90;99.90
53410;DHT22;66590;50.734;4.246;2023-03-03T01:50:13;2.90;99.90
53410;DHT22;66590;50.734;4.246;2023-03-03T01:52:43;2.90;99.90
53410;DHT22;66590;50.734;4.246;2023-03-03T01:55:13;2.90;99.90
53410;DHT22;66590;50.734;4.246;2023-03-03T01:57:44;2.90;99.90
53410;DHT22;66590;50.734;4.246;2023-03-03T02:00:14;2.90;99.90
53410;DHT22;66590;50.734;4.246;2023-03-03T02:02:42;2.90;99.90
53410;DHT22;66590;50.734;4.246;2023-03-03T02:05:10;2.90;99.90
53410;DHT22;66590;50.734;4.246;2023-03-03T02:07:38;2.90;99.90
53410;DHT22;66590;50.734;4.246;2023-03-03T02:10:08;2.90;99.90
53410;DHT22;66590;50.734;4.246;2023-03-03T02:12:39;2.80;99.90
53410;DHT22;66590;50.734;4.246;2023-03-03T02:15:20;2.80;99.90
53410;DHT22;66590;50.734;4.246;2023-03-03T02:17:49;2.70;99.90
53410;DHT22;66590;50.734;4.246;2023-03-03T02:20:28;2.70;99.90
53410;DHT22;66590;50.734;4.246;2023-03-03T02:23:03;2.60;99.90
53410;DHT22;66590;50.734;4.246;2023-03-03T02:25:39;2.70;99.90
53410;DHT22;66590;50.734;4.246;2023-03-03T02:28:11;2.60;99.90
53410;DHT22;66590;50.734;4.246;2023-03-03T02:30:38;2.60;99.90
53410;DHT22;66590;50.734;4.246;2023-03-03T02:33:06;2.50;99.90
53410;DHT22;66590;50.734;4.246;2023-03-03T02:35:35;2.40;99.90
53410;DHT22;66590;50.734;4.246;2023-03-03T02:38:20;2.40;99.90
53410;DHT22;66590;50.734;4.246;2023-03-03T02:40:58;2.50;99.90
53410;DHT22;66590;50.734;4.246;2023-03-03T02:43:32;2.40;99.90
53410;DHT22;66590;50.734;4.246;2023-03-03T02:46:02;2.40;99.90
53410;DHT22;66590;50.734;4.246;2023-03-03T02:48:29;2.40;99.90
53410;DHT22;66590;50.734;4.246;2023-03-03T02:50:56;2.40;99.90
53410;DHT22;66590;50.734;4.246;2023-03-03T02:53:23;2.40;99.90
53410;DHT22;66590;50.734;4.246;2023-03-03T02:55:50;2.40;99.90
53410;DHT22;66590;50.734;4.246;2023-03-03T02:58:17;2.50;99.90
53410;DHT22;66590;50.734;4.246;2023-03-03T03:00:46;2.50;99.90
53410;DHT22;66590;50.734;4.246;2023-03-03T03:03:13;2.40;99.90
53410;DHT22;66590;50.734;4.246;2023-03-03T03:05:40;2.50;99.90
53410;DHT22;66590;50.734;4.246;2023-03-03T03:08:07;2.40;99.90
53410;DHT22;66590;50.734;4.246;2023-03-03T03:10:35;2.30;99.90
53410;DHT22;66590;50.734;4.246;2023-03-03T03:13:02;2.40;99.90
53410;DHT22;66590;50.734;4.246;2023-03-03T03:15:29;2.40;99.90
53410;DHT22;66590;50.734;4.246;2023-03-03T03:17:58;2.30;99.90
53410;DHT22;66590;50.734;4.246;2023-03-03T03:20:25;2.40;99.90
53410;DHT22;66590;50.734;4.246;2023-03-03T03:22:52;2.50;99.90
53410;DHT22;66590;50.734;4.246;2023-03-03T03:25:19;2.50;99.90
53410;DHT22;66590;50.734;4.246;2023-03-03T03:27:47;2.50;99.90
53410;DHT22;66590;50.734;4.246;2023-03-03T03:30:14;2.50;99.90
53410;DHT22;66590;50.734;4.246;2023-03-03T03:32:42;2.50;99.90
53410;DHT22;66590;50.734;4.246;2023-03-03T03:35:11;2.50;99.90
53410;DHT22;66590;50.734;4.246;2023-03-03T03:37:38;2.60;99.90
53410;DHT22;66590;50.734;4.246;2023-03-03T03:40:05;2.60;99.90
53410;DHT22;66590;50.734;4.246;2023-03-03T03:42:33;2.50;99.90
53410;DHT22;66590;50.734;4.246;2023-03-03T03:45:02;2.60;99.90
53410;DHT22;66590;50.734;4.246;2023-03-03T03:47:30;2.70;99.90
53410;DHT22;66590;50.734;4.246;2023-03-03T03:49:57;2.70;99.90
53410;DHT22;66590;50.734;4.246;2023-03-03T03:52:25;2.60;99.90
53410;DHT22;66590;50.734;4.246;2023-03-03T03:54:52;2.60;99.90
53410;DHT22;66590;50.734;4.246;2023-03-03T03:57:19;2.70;99.90
53410;DHT22;66590;50.734;4.246;2023-03-03T03:59:48;2.80;99.90
53410;DHT22;66590;50.734;4.246;2023-03-03T04:02:15;2.80;99.90
53410;DHT22;66590;50.734;4.246;2023-03-03T04:04:43;2.90;99.90
53410;DHT22;66590;50.734;4.246;2023-03-03T04:07:10;2.80;99.90
53410;DHT22;66590;50.734;4.246;2023-03-03T04:09:38;2.70;99.90
53410;DHT22;66590;50.734;4.246;2023-03-03T04:12:06;2.80;99.90
53410;DHT22;66590;50.734;4.246;2023-03-03T04:14:33;2.80;99.90
53410;DHT22;66590;50.734;4.246;2023-03-03T04:17:00;2.90;99.90
53410;DHT22;66590;50.734;4.246;2023-03-03T04:19:27;2.90;99.90
53410;DHT22;66590;50.734;4.246;2023-03-03T04:21:54;3.00;99.90
53410;DHT22;66590;50.734;4.246;2023-03-03T04:24:21;3.00;99.90
53410;DHT22;66590;50.734;4.246;2023-03-03T04:26:49;3.00;99.90
53410;DHT22;66590;50.734;4.246;2023-03-03T04:29:17;3.10;99.90
53410;DHT22;66590;50.734;4.246;2023-03-03T04:31:44;3.10;99.90
53410;DHT22;66590;50.734;4.246;2023-03-03T04:34:11;3.20;99.90
53410;DHT22;66590;50.734;4.246;2023-03-03T04:36:38;3.20;99.90
53410;DHT22;66590;50.734;4.246;2023-03-03T04:39:05;3.00;99.90
53410;DHT22;66590;50.734;4.246;2023-03-03T04:41:32;2.90;99.90
53410;DHT22;66590;50.734;4.246;2023-03-03T04:44:00;2.80;99.90
53410;DHT22;66590;50.734;4.246;2023-03-03T04:46:27;2.80;99.90
53410;DHT22;66590;50.734;4.246;2023-03-03T04:48:55;3.00;99.90
53410;DHT22;66590;50.734;4.246;2023-03-03T04:51:22;3.00;99.90
53410;DHT22;66590;50.734;4.246;2023-03-03T04:53:49;3.00;99.90
53410;DHT22;66590;50.734;4.246;2023-03-03T04:56:16;2.90;99.90
53410;DHT22;66590;50.734;4.246;2023-03-03T04:58:43;2.90;99.90
53410;DHT22;66590;50.734;4.246;2023-03-03T05:01:12;2.80;99.90
53410;DHT22;66590;50.734;4.246;2023-03-03T05:03:40;2.80;99.90
53410;DHT22;66590;50.734;4.246;2023-03-03T05:06:07;2.80;99.90
53410;DHT22;66590;50.734;4.246;2023-03-03T05:08:34;2.80;99.90
53410;DHT22;66590;50.734;4.246;2023-03-03T05:11:02;2.70;99.90
53410;DHT22;66590;50.734;4.246;2023-03-03T05:13:29;2.70;99.90
53410;DHT22;66590;50.734;4.246;2023-03-03T05:15:56;2.70;99.90
53410;DHT22;66590;50.734;4.246;2023-03-03T05:18:25;2.70;99.90
53410;DHT22;66590;50.734;4.246;2023-03-03T05:20:53;2.70;99.90
53410;DHT22;66590;50.734;4.246;2023-03-03T05:23:20;2.70;99.90
53410;DHT22;66590;50.734;4.246;2023-03-03T05:25:48;2.60;99.90
53410;DHT22;66590;50.734;4.246;2023-03-03T05:28:16;2.70;99.90
53410;DHT22;66590;50.734;4.246;2023-03-03T05:30:43;2.60;99.90
53410;DHT22;66590;50.734;4.246;2023-03-03T05:33:13;2.50;99.90
53410;DHT22;66590;50.734;4.246;2023-03-03T05:35:42;2.50;99.90
53410;DHT22;66590;50.734;4.246;2023-03-03T05:38:10;2.50;99.90
53410;DHT22;66590;50.734;4.246;2023-03-03T05:40:37;2.60;99.90
53410;DHT22;66590;50.734;4.246;2023-03-03T05:43:04;2.70;99.90
53410;DHT22;66590;50.734;4.246;2023-03-03T05:45:31;2.70;99.90
53410;DHT22;66590;50.734;4.246;2023-03-03T05:47:58;2.60;99.90
53410;DHT22;66590;50.734;4.246;2023-03-03T05:50:25;2.50;99.90
53410;DHT22;66590;50.734;4.246;2023-03-03T05:52:54;2.50;99.90
53410;DHT22;66590;50.734;4.246;2023-03-03T05:55:21;2.40;99.90
53410;DHT22;66590;50.734;4.246;2023-03-03T05:57:48;2.30;99.90
53410;DHT22;66590;50.734;4.246;2023-03-03T06:00:17;2.30;99.90
53410;DHT22;66590;50.734;4.246;2023-03-03T06:02:44;2.30;99.90
53410;DHT22;66590;50.734;4.246;2023-03-03T06:05:11;2.20;99.90
53410;DHT22;66590;50.734;4.246;2023-03-03T06:07:38;2.20;99.90
53410;DHT22;66590;50.734;4.246;2023-03-03T06:10:08;2.20;99.90
53410;DHT22;66590;50.734;4.246;2023-03-03T06:12:35;2.10;99.90
53410;DHT22;66590;50.734;4.246;2023-03-03T06:15:02;2.20;99.90
53410;DHT22;66590;50.734;4.246;2023-03-03T06:17:30;2.20;99.90
53410;DHT22;66590;50.734;4.246;2023-03-03T06:19:57;2.30;99.90
53410;DHT22;66590;50.734;4.246;2023-03-03T06:22:24;2.20;99.90
53410;DHT22;66590;50.734;4.246;2023-03-03T06:24:51;2.20;99.90
53410;DHT22;66590;50.734;4.246;2023-03-03T06:27:19;2.20;99.90
53410;DHT22;66590;50.734;4.246;2023-03-03T06:29:46;2.30;99.90
53410;DHT22;66590;50.734;4.246;2023-03-03T06:32:13;2.40;99.90
53410;DHT22;66590;50.734;4.246;2023-03-03T06:34:41;2.40;99.90
53410;DHT22;66590;50.734;4.246;2023-03-03T06:37:08;2.20;99.90
53410;DHT22;66590;50.734;4.246;2023-03-03T06:39:35;2.10;99.90
53410;DHT22;66590;50.734;4.246;2023-03-03T06:42:02;2.00;99.90
53410;DHT22;66590;50.734;4.246;2023-03-03T06:44:31;2.00;99.90
53410;DHT22;66590;50.734;4.246;2023-03-03T06:46:58;1.90;99.90
53410;DHT22;66590;50.734;4.246;2023-03-03T06:49:25;2.10;99.90
53410;DHT22;66590;50.734;4.246;2023-03-03T06:51:52;2.10;99.90
53410;DHT22;66590;50.734;4.246;2023-03-03T06:54:21;2.10;99.90
53410;DHT22;66590;50.734;4.246;2023-03-03T06:56:57;2.10;99.90
53410;DHT22;66590;50.734;4.246;2023-03-03T06:59:26;2.10;99.90
53410;DHT22;66590;50.734;4.246;2023-03-03T07:01:55;2.20;99.90
53410;DHT22;66590;50.734;4.246;2023-03-03T07:04:27;2.20;99.90
53410;DHT22;66590;50.734;4.246;2023-03-03T07:06:55;2.20;99.90
53410;DHT22;66590;50.734;4.246;2023-03-03T07:09:24;2.20;99.90
53410;DHT22;66590;50.734;4.246;2023-03-03T07:11:53;2.20;99.90
53410;DHT22;66590;50.734;4.246;2023-03-03T07:14:22;2.20;99.90
53410;DHT22;66590;50.734;4.246;2023-03-03T07:16:59;2.10;99.90
53410;DHT22;66590;50.734;4.246;2023-03-03T07:19:30;2.10;99.90
53410;DHT22;66590;50.734;4.246;2023-03-03T07:22:00;2.20;99.90
53410;DHT22;66590;50.734;4.246;2023-03-03T07:24:33;2.10;99.90
53410;DHT22;66590;50.734;4.246;2023-03-03T07:27:09;2.10;99.90
53410;DHT22;66590;50.734;4.246;2023-03-03T07:29:37;2.10;99.90
53410;DHT22;66590;50.734;4.246;2023-03-03T07:32:18;2.20;99.90
53410;DHT22;66590;50.734;4.246;2023-03-03T07:34:50;2.30;99.90
53410;DHT22;66590;50.734;4.246;2023-03-03T07:37:25;2.30;99.90
53410;DHT22;66590;50.734;4.246;2023-03-03T07:39:55;2.10;99.90
53410;DHT22;66590;50.734;4.246;2023-03-03T07:42:23;2.20;99.90
53410;DHT22;66590;50.734;4.246;2023-03-03T07:44:53;2.30;99.90
53410;DHT22;66590;50.734;4.246;2023-03-03T07:47:24;2.20;99.90
53410;DHT22;66590;50.734;4.246;2023-03-03T07:49:53;2.20;99.90
53410;DHT22;66590;50.734;4.246;2023-03-03T07:52:25;2.30;99.90
53410;DHT22;66590;50.734;4.246;2023-03-03T07:54:54;2.20;99.90
53410;DHT22;66590;50.734;4.246;2023-03-03T07:57:24;2.30;99.90
53410;DHT22;66590;50.734;4.246;2023-03-03T07:59:54;2.30;99.90
53410;DHT22;66590;50.734;4.246;2023-03-03T08:02:37;2.40;99.90
53410;DHT22;66590;50.734;4.246;2023-03-03T08:05:26;2.40;99.90
53410;DHT22;66590;50.734;4.246;2023-03-03T08:07:55;2.40;99.90
53410;DHT22;66590;50.734;4.246;2023-03-03T08:10:34;2.50;99.90
53410;DHT22;66590;50.734;4.246;2023-03-03T08:13:12;2.40;99.90
53410;DHT22;66590;50.734;4.246;2023-03-03T08:15:42;2.40;99.90
53410;DHT22;66590;50.734;4.246;2023-03-03T08:18:21;2.40;99.90
53410;DHT22;66590;50.734;4.246;2023-03-03T08:20:50;2.40;99.90
53410;DHT22;66590;50.734;4.246;2023-03-03T08:23:18;2.50;99.90
53410;DHT22;66590;50.734;4.246;2023-03-03T08:25:47;2.50;99.90
53410;DHT22;66590;50.734;4.246;2023-03-03T08:28:14;2.60;99.90
53410;DHT22;66590;50.734;4.246;2023-03-03T08:30:42;2.70;99.90
53410;DHT22;66590;50.734;4.246;2023-03-03T08:33:10;2.70;99.90
53410;DHT22;66590;50.734;4.246;2023-03-03T08:35:38;2.60;99.90
53410;DHT22;66590;50.734;4.246;2023-03-03T08:38:06;2.60;99.90
53410;DHT22;66590;50.734;4.246;2023-03-03T08:40:34;2.50;99.90
53410;DHT22;66590;50.734;4.246;2023-03-03T08:43:01;2.70;99.90
53410;DHT22;66590;50.734;4.246;2023-03-03T08:45:28;2.60;99.90
53410;DHT22;66590;50.734;4.246;2023-03-03T08:47:55;2.70;99.90
53410;DHT22;66590;50.734;4.246;2023-03-03T08:50:22;2.70;99.90
53410;DHT22;66590;50.734;4.246;2023-03-03T08:52:51;2.60;99.90
53410;DHT22;66590;50.734;4.246;2023-03-03T08:55:18;2.50;99.90
53410;DHT22;66590;50.734;4.246;2023-03-03T08:57:45;2.60;99.90
53410;DHT22;66590;50.734;4.246;2023-03-03T09:00:15;2.60;99.90
53410;DHT22;66590;50.734;4.246;2023-03-03T09:02:42;2.60;99.90
53410;DHT22;66590;50.734;4.246;2023-03-03T09:05:10;2.60;99.90
53410;DHT22;66590;50.734;4.246;2023-03-03T09:07:37;2.60;99.90
53410;DHT22;66590;50.734;4.246;2023-03-03T09:10:07;2.50;99.90
53410;DHT22;66590;50.734;4.246;2023-03-03T09:12:38;2.70;99.90
53410;DHT22;66590;50.734;4.246;2023-03-03T09:15:18;2.80;99.90
53410;DHT22;66590;50.734;4.246;2023-03-03T09:17:46;2.90;99.90
53410;DHT22;66590;50.734;4.246;2023-03-03T09:20:35;2.90;99.90
53410;DHT22;66590;50.734;4.246;2023-03-03T09:23:28;2.80;99.90
53410;DHT22;66590;50.734;4.246;2023-03-03T09:26:20;2.80;99.90
53410;DHT22;66590;50.734;4.246;2023-03-03T09:28:45;2.90;99.90
53410;DHT22;66590;50.734;4.246;2023-03-03T09:31:21;3.00;99.90
53410;DHT22;66590;50.734;4.246;2023-03-03T09:33:50;2.90;99.90
53410;DHT22;66590;50.734;4.246;2023-03-03T09:36:22;2.80;99.90
53410;DHT22;66590;50.734;4.246;2023-03-03T09:38:49;2.80;99.90
53410;DHT22;66590;50.734;4.246;2023-03-03T09:44:49;2.90;99.90
53410;DHT22;66590;50.734;4.246;2023-03-03T09:47:41;3.00;99.90
53410;DHT22;66590;50.734;4.246;2023-03-03T09:50:19;3.20;99.90
53410;DHT22;66590;50.734;4.246;2023-03-03T09:52:54;3.20;99.90
53410;DHT22;66590;50.734;4.246;2023-03-03T09:55:38;3.30;99.90
53410;DHT22;66590;50.734;4.246;2023-03-03T09:58:19;3.30;99.90
53410;DHT22;66590;50.734;4.246;2023-03-03T10:00:57;3.20;99.90
53410;DHT22;66590;50.734;4.246;2023-03-03T10:03:46;3.20;99.90
53410;DHT22;66590;50.734;4.246;2023-03-03T10:06:23;3.30;99.90
53410;DHT22;66590;50.734;4.246;2023-03-03T10:09:02;3.20;99.90
53410;DHT22;66590;50.734;4.246;2023-03-03T10:11:37;3.30;99.90
53410;DHT22;66590;50.734;4.246;2023-03-03T10:14:24;3.40;99.90
53410;DHT22;66590;50.734;4.246;2023-03-03T10:17:21;3.50;99.90
53410;DHT22;66590;50.734;4.246;2023-03-03T10:20:03;3.40;99.90
53410;DHT22;66590;50.734;4.246;2023-03-03T10:22:37;3.60;99.90
53410;DHT22;66590;50.734;4.246;2023-03-03T10:25:16;3.60;99.90
53410;DHT22;66590;50.734;4.246;2023-03-03T10:28:05;3.60;99.90
53410;DHT22;66590;50.734;4.246;2023-03-03T10:30:41;3.70;99.90
53410;DHT22;66590;50.734;4.246;2023-03-03T10:33:36;3.80;99.90
53410;DHT22;66590;50.734;4.246;2023-03-03T10:36:29;3.90;99.90
53410;DHT22;66590;50.734;4.246;2023-03-03T10:39:13;4.00;99.90
53410;DHT22;66590;50.734;4.246;2023-03-03T10:41:57;3.90;99.90
53410;DHT22;66590;50.734;4.246;2023-03-03T10:44:50;3.80;99.90
53410;DHT22;66590;50.734;4.246;2023-03-03T10:47:44;3.80;99.90
53410;DHT22;66590;50.734;4.246;2023-03-03T10:50:20;3.90;99.90
53410;DHT22;66590;50.734;4.246;2023-03-03T10:52:59;4.00;99.90
53410;DHT22;66590;50.734;4.246;2023-03-03T10:55:35;4.00;99.90
53410;DHT22;66590;50.734;4.246;2023-03-03T10:58:45;4.20;99.90
53410;DHT22;66590;50.734;4.246;2023-03-03T11:01:23;4.20;99.90
53410;DHT22;66590;50.734;4.246;2023-03-03T11:04:12;4.10;99.90
53410;DHT22;66590;50.734;4.246;2023-03-03T11:06:51;4.20;99.90
53410;DHT22;66590;50.734;4.246;2023-03-03T11:09:34;4.40;99.90
53410;DHT22;66590;50.734;4.246;2023-03-03T11:12:11;4.50;99.90
53410;DHT22;66590;50.734;4.246;2023-03-03T11:14:46;4.50;99.90
53410;DHT22;66590;50.734;4.246;2023-03-03T11:17:21;4.50;99.90
53410;DHT22;66590;50.734;4.246;2023-03-03T11:20:00;4.60;99.90
53410;DHT22;66590;50.734;4.246;2023-03-03T11:22:48;4.60;99.90
53410;DHT22;66590;50.734;4.246;2023-03-03T11:25:26;4.50;99.90
53410;DHT22;66590;50.734;4.246;2023-03-03T11:28:04;4.50;99.90
53410;DHT22;66590;50.734;4.246;2023-03-03T11:30:43;4.40;99.90
53410;DHT22;66590;50.734;4.246;2023-03-03T11:33:17;4.60;99.90
53410;DHT22;66590;50.734;4.246;2023-03-03T11:35:50;4.70;99.90
53410;DHT22;66590;50.734;4.246;2023-03-03T11:38:46;4.70;99.90
53410;DHT22;66590;50.734;4.246;2023-03-03T11:41:22;5.00;99.90
53410;DHT22;66590;50.734;4.246;2023-03-03T11:43:55;5.00;99.90
53410;DHT22;66590;50.734;4.246;2023-03-03T11:46:30;5.10;99.90
53410;DHT22;66590;50.734;4.246;2023-03-03T11:49:01;5.00;99.90
53410;DHT22;66590;50.734;4.246;2023-03-03T11:51:37;5.30;99.90
53410;DHT22;66590;50.734;4.246;2023-03-03T11:54:16;5.20;99.90
53410;DHT22;66590;50.734;4.246;2023-03-03T11:56:46;5.10;99.90
53410;DHT22;66590;50.734;4.246;2023-03-03T11:59:25;5.00;99.90
53410;DHT22;66590;50.734;4.246;2023-03-03T12:02:01;5.00;99.90
53410;DHT22;66590;50.734;4.246;2023-03-03T12:04:33;5.10;99.90
53410;DHT22;66590;50.734;4.246;2023-03-03T12:07:13;5.20;99.90
53410;DHT22;66590;50.734;4.246;2023-03-03T12:10:02;5.20;99.90
53410;DHT22;66590;50.734;4.246;2023-03-03T12:12:38;5.30;99.90
53410;DHT22;66590;50.734;4.246;2023-03-03T12:15:18;5.30;99.90
53410;DHT22;66590;50.734;4.246;2023-03-03T12:18:13;5.30;99.90
53410;DHT22;66590;50.734;4.246;2023-03-03T12:20:50;5.40;99.90
53410;DHT22;66590;50.734;4.246;2023-03-03T12:23:39;5.60;99.90
53410;DHT22;66590;50.734;4.246;2023-03-03T12:26:16;5.80;99.90
53410;DHT22;66590;50.734;4.246;2023-03-03T12:28:50;5.90;99.90
53410;DHT22;66590;50.734;4.246;2023-03-03T12:31:27;6.10;99.90
53410;DHT22;66590;50.734;4.246;2023-03-03T12:33:57;6.00;99.90
53410;DHT22;66590;50.734;4.246;2023-03-03T12:36:41;6.30;99.90
53410;DHT22;66590;50.734;4.246;2023-03-03T12:39:17;6.50;99.90
53410;DHT22;66590;50.734;4.246;2023-03-03T12:42:09;6.60;99.90
53410;DHT22;66590;50.734;4.246;2023-03-03T12:44:40;6.60;99.90
53410;DHT22;66590;50.734;4.246;2023-03-03T12:47:15;6.60;99.90
53410;DHT22;66590;50.734;4.246;2023-03-03T12:49:54;6.70;99.90
53410;DHT22;66590;50.734;4.246;2023-03-03T12:52:42;6.80;99.90
53410;DHT22;66590;50.734;4.246;2023-03-03T12:55:18;6.90;99.90
53410;DHT22;66590;50.734;4.246;2023-03-03T12:57:54;6.80;99.90
53410;DHT22;66590;50.734;4.246;2023-03-03T13:00:28;6.70;99.90
53410;DHT22;66590;50.734;4.246;2023-03-03T13:03:01;6.60;99.90
53410;DHT22;66590;50.734;4.246;2023-03-03T13:05:39;6.70;99.90
53410;DHT22;66590;50.734;4.246;2023-03-03T13:08:29;6.80;99.90
53410;DHT22;66590;50.734;4.246;2023-03-03T13:11:05;7.00;99.90
53410;DHT22;66590;50.734;4.246;2023-03-03T13:13:41;7.40;99.90
53410;DHT22;66590;50.734;4.246;2023-03-03T13:16:11;7.30;99.90
53410;DHT22;66590;50.734;4.246;2023-03-03T13:18:50;7.20;99.90
53410;DHT22;66590;50.734;4.246;2023-03-03T13:21:23;7.40;99.90
53410;DHT22;66590;50.734;4.246;2023-03-03T13:23:57;7.50;99.90
53410;DHT22;66590;50.734;4.246;2023-03-03T13:26:30;7.70;99.90
53410;DHT22;66590;50.734;4.246;2023-03-03T13:29:07;7.50;99.90
53410;DHT22;66590;50.734;4.246;2023-03-03T13:31:38;7.50;99.90
53410;DHT22;66590;50.734;4.246;2023-03-03T13:34:09;7.50;99.90
53410;DHT22;66590;50.734;4.246;2023-03-03T13:36:47;7.30;99.90
53410;DHT22;66590;50.734;4.246;2023-03-03T13:39:21;7.10;99.90
53410;DHT22;66590;50.734;4.246;2023-03-03T13:41:54;7.10;99.90
53410;DHT22;66590;50.734;4.246;2023-03-03T13:44:30;7.20;99.90
53410;DHT22;66590;50.734;4.246;2023-03-03T13:47:10;7.10;99.90
53410;DHT22;66590;50.734;4.246;2023-03-03T13:49:56;6.90;99.90
53410;DHT22;66590;50.734;4.246;2023-03-03T13:52:27;6.90;99.90
53410;DHT22;66590;50.734;4.246;2023-03-03T13:55:14;6.80;99.90
53410;DHT22;66590;50.734;4.246;2023-03-03T13:57:56;6.80;99.90
53410;DHT22;66590;50.734;4.246;2023-03-03T14:00:55;6.80;99.90
53410;DHT22;66590;50.734;4.246;2023-03-03T14:06:26;6.90;99.90
53410;DHT22;66590;50.734;4.246;2023-03-03T14:09:09;6.90;99.90
53410;DHT22;66590;50.734;4.246;2023-03-03T14:11:44;6.80;99.90
53410;DHT22;66590;50.734;4.246;2023-03-03T14:17:16;7.00;99.90
53410;DHT22;66590;50.734;4.246;2023-03-03T14:19:53;7.20;99.90
53410;DHT22;66590;50.734;4.246;2023-03-03T14:22:35;7.30;99.90
53410;DHT22;66590;50.734;4.246;2023-03-03T14:25:08;7.30;99.90
53410;DHT22;66590;50.734;4.246;2023-03-03T14:27:38;7.10;99.90
53410;DHT22;66590;50.734;4.246;2023-03-03T14:30:28;7.20;99.90
53410;DHT22;66590;50.734;4.246;2023-03-03T14:33:06;7.10;99.90
53410;DHT22;66590;50.734;4.246;2023-03-03T14:35:42;7.10;99.90
53410;DHT22;66590;50.734;4.246;2023-03-03T14:38:13;7.10;99.90
53410;DHT22;66590;50.734;4.246;2023-03-03T14:40:42;7.10;99.90
53410;DHT22;66590;50.734;4.246;2023-03-03T14:43:21;7.00;99.90
53410;DHT22;66590;50.734;4.246;2023-03-03T14:45:49;7.30;99.90
53410;DHT22;66590;50.734;4.246;2023-03-03T14:48:19;7.50;99.90
53410;DHT22;66590;50.734;4.246;2023-03-03T14:50:50;7.80;99.90
53410;DHT22;66590;50.734;4.246;2023-03-03T14:53:29;7.70;99.90
53410;DHT22;66590;50.734;4.246;2023-03-03T14:56:14;7.60;99.90
53410;DHT22;66590;50.734;4.246;2023-03-03T14:58:42;7.60;99.90
53410;DHT22;66590;50.734;4.246;2023-03-03T15:01:15;7.40;99.90
53410;DHT22;66590;50.734;4.246;2023-03-03T15:03:49;7.40;99.90
53410;DHT22;66590;50.734;4.246;2023-03-03T15:06:33;7.60;99.90
53410;DHT22;66590;50.734;4.246;2023-03-03T15:09:26;7.80;99.90
53410;DHT22;66590;50.734;4.246;2023-03-03T15:11:55;7.90;99.90
53410;DHT22;66590;50.734;4.246;2023-03-03T15:14:28;8.10;99.90
53410;DHT22;66590;50.734;4.246;2023-03-03T15:16:56;8.00;99.90
53410;DHT22;66590;50.734;4.246;2023-03-03T15:19:39;7.80;99.90
53410;DHT22;66590;50.734;4.246;2023-03-03T15:22:17;7.60;99.90
53410;DHT22;66590;50.734;4.246;2023-03-03T15:24:51;7.50;99.90
53410;DHT22;66590;50.734;4.246;2023-03-03T15:27:25;7.50;99.90
53410;DHT22;66590;50.734;4.246;2023-03-03T15:30:06;7.30;99.90
53410;DHT22;66590;50.734;4.246;2023-03-03T15:32:42;7.40;99.90
53410;DHT22;66590;50.734;4.246;2023-03-03T15:35:24;7.60;99.90
53410;DHT22;66590;50.734;4.246;2023-03-03T15:37:58;7.50;99.90
53410;DHT22;66590;50.734;4.246;2023-03-03T15:40:27;7.50;99.90
53410;DHT22;66590;50.734;4.246;2023-03-03T15:43:02;7.50;99.90
53410;DHT22;66590;50.734;4.246;2023-03-03T15:45:34;7.60;99.90
53410;DHT22;66590;50.734;4.246;2023-03-03T15:48:21;7.80;99.90
53410;DHT22;66590;50.734;4.246;2023-03-03T15:51:01;7.60;99.90
53410;DHT22;66590;50.734;4.246;2023-03-03T15:53:41;7.50;99.90
53410;DHT22;66590;50.734;4.246;2023-03-03T15:56:21;7.50;99.90
53410;DHT22;66590;50.734;4.246;2023-03-03T16:01:55;7.60;99.90
53410;DHT22;66590;50.734;4.246;2023-03-03T16:04:30;7.60;99.90
53410;DHT22;66590;50.734;4.246;2023-03-03T16:07:04;7.40;99.90
53410;DHT22;66590;50.734;4.246;2023-03-03T16:09:42;7.30;99.90
53410;DHT22;66590;50.734;4.246;2023-03-03T16:12:20;7.40;99.90
53410;DHT22;66590;50.734;4.246;2023-03-03T16:15:14;7.40;99.90
53410;DHT22;66590;50.734;4.246;2023-03-03T16:17:49;7.30;99.90
53410;DHT22;66590;50.734;4.246;2023-03-03T16:20:21;7.40;99.90
53410;DHT22;66590;50.734;4.246;2023-03-03T16:23:00;7.50;99.90
53410;DHT22;66590;50.734;4.246;2023-03-03T16:25:55;7.50;99.90
53410;DHT22;66590;50.734;4.246;2023-03-03T16:28:29;7.50;99.90
53410;DHT22;66590;50.734;4.246;2023-03-03T16:31:06;7.40;99.90
53410;DHT22;66590;50.734;4.246;2023-03-03T16:33:37;7.40;99.90
53410;DHT22;66590;50.734;4.246;2023-03-03T16:36:12;7.40;99.90